createdAt,value
2022-11-14T00:04:38.584Z,3.70
2022-11-14T00:11:58.163Z,3.60
2022-11-14T00:19:17.221Z,3.60
2022-11-14T00:26:36.619Z,3.50
2022-11-14T00:33:56.221Z,3.50
2022-11-14T00:41:16.112Z,3.50
2022-11-14T00:48:35.952Z,3.50
2022-11-14T00:55:55.501Z,3.50
2022-11-14T01:03:15.033Z,3.50
2022-11-14T01:10:34.445Z,3.50
2022-11-14T01:17:53.763Z,3.40
2022-11-14T01:25:13.193Z,3.30
2022-11-14T01:32:32.839Z,3.20
2022-11-14T01:39:52.686Z,3.10
2022-11-14T01:47:15.504Z,2.90
2022-11-14T01:54:38.768Z,2.90
2022-11-14T02:02:03.999Z,2.90
2022-11-14T02:09:23.557Z,2.90
2022-11-14T02:16:51.793Z,2.80
2022-11-14T02:24:23.015Z,2.80
2022-11-14T02:31:42.499Z,2.70
2022-11-14T02:39:02.268Z,2.60
2022-11-14T02:46:21.843Z,2.60
2022-11-14T02:53:41.084Z,2.50
2022-11-14T03:01:19.620Z,2.50
2022-11-14T03:08:39.764Z,2.40
2022-11-14T03:16:09.448Z,2.40
2022-11-14T03:23:29.304Z,2.40
2022-11-14T03:30:48.561Z,2.40
2022-11-14T03:38:08.002Z,2.50
2022-11-14T03:45:27.340Z,2.50
2022-11-14T03:52:49.381Z,2.50
2022-11-14T04:00:09.853Z,2.50
2022-11-14T04:07:29.469Z,2.50
2022-11-14T04:14:49.246Z,2.40
2022-11-14T04:22:08.876Z,2.40
2022-11-14T04:29:28.158Z,2.30
2022-11-14T04:36:47.577Z,2.30
2022-11-14T04:44:07.128Z,2.20
2022-11-14T04:51:26.198Z,2.30
2022-11-14T04:58:45.661Z,2.30
2022-11-14T05:06:05.315Z,2.30
2022-11-14T05:13:25.204Z,2.30
2022-11-14T05:20:44.792Z,2.40
2022-11-14T05:28:04.342Z,2.40
2022-11-14T05:35:23.765Z,2.40
2022-11-14T05:42:43.138Z,2.30
2022-11-14T05:50:03.732Z,2.30
2022-11-14T05:57:23.345Z,2.30
2022-11-14T06:04:43.147Z,2.30
2022-11-14T06:12:06.066Z,2.30
2022-11-14T06:19:25.750Z,2.20
2022-11-14T06:26:45.369Z,2.30
2022-11-14T06:34:06.119Z,2.20
2022-11-14T06:41:26.239Z,2.30
2022-11-14T06:48:46.570Z,2.30
2022-11-14T06:56:14.686Z,2.50
2022-11-14T07:03:34.738Z,2.80
2022-11-14T07:10:54.001Z,3.10
2022-11-14T07:18:13.467Z,3.30
2022-11-14T07:25:33.077Z,3.50
2022-11-14T07:32:58.143Z,3.80
2022-11-14T07:40:18.357Z,4.00
2022-11-14T07:47:37.940Z,4.20
2022-11-14T07:54:57.817Z,4.30
2022-11-14T08:02:17.303Z,4.50
2022-11-14T08:09:36.719Z,4.80
2022-11-14T08:16:56.552Z,5.00
2022-11-14T08:24:15.980Z,5.20
2022-11-14T08:31:35.579Z,5.40
2022-11-14T08:39:00.515Z,5.60
2022-11-14T08:46:22.130Z,5.80
2022-11-14T08:53:42.021Z,6.00
2022-11-14T09:01:03.937Z,6.10
2022-11-14T09:08:23.495Z,6.30
2022-11-14T09:15:43.572Z,6.40
2022-11-14T09:23:03.500Z,6.60
2022-11-14T09:30:23.499Z,6.70
2022-11-14T09:37:42.784Z,6.80
2022-11-14T09:45:10.574Z,7.00
2022-11-14T09:52:46.251Z,7.10
2022-11-14T10:00:21.238Z,7.20
2022-11-14T10:07:49.730Z,7.30
2022-11-14T10:15:11.844Z,7.50
2022-11-14T10:22:55.131Z,7.60
2022-11-14T10:30:19.318Z,7.80
2022-11-14T10:37:46.536Z,8.00
2022-11-14T10:45:43.794Z,8.10
2022-11-14T10:53:07.059Z,8.30
2022-11-14T11:00:27.425Z,8.40
2022-11-14T11:15:55.252Z,8.60
2022-11-14T11:23:22.459Z,8.70
2022-11-14T11:30:56.937Z,8.80
2022-11-14T11:38:20.954Z,9.00
2022-11-14T11:45:42.828Z,9.00
2022-11-14T11:53:12.572Z,9.10
2022-11-14T12:00:35.247Z,9.30
2022-11-14T12:08:09.555Z,9.40
2022-11-14T12:15:45.083Z,9.40
2022-11-14T12:23:15.801Z,9.50
2022-11-14T12:30:36.997Z,9.60
2022-11-14T12:37:59.581Z,9.70
2022-11-14T12:45:40.924Z,9.70
2022-11-14T12:53:00.235Z,9.80
2022-11-14T13:00:20.030Z,9.70
2022-11-14T13:07:57.425Z,9.60
2022-11-14T13:15:49.521Z,9.50
2022-11-14T13:23:27.807Z,9.50
2022-11-14T13:31:15.010Z,9.50
2022-11-14T13:38:56.945Z,9.40
2022-11-14T13:46:29.155Z,9.40
2022-11-14T13:53:48.542Z,9.40
2022-11-14T14:01:29.573Z,9.40
2022-11-14T14:09:00.682Z,9.40
2022-11-14T14:16:31.718Z,9.40
2022-11-14T14:24:15.486Z,9.40
2022-11-14T14:31:40.609Z,9.40
2022-11-14T14:39:17.230Z,9.40
2022-11-14T14:46:36.687Z,9.30
2022-11-14T14:53:56.085Z,9.40
2022-11-14T15:01:25.953Z,9.40
2022-11-14T15:08:46.535Z,9.30
2022-11-14T15:16:07.337Z,9.30
2022-11-14T15:23:26.458Z,9.30
2022-11-14T15:31:01.230Z,9.30
2022-11-14T15:46:02.517Z,9.20
2022-11-14T15:53:24.208Z,9.10
2022-11-14T16:00:50.807Z,9.10
2022-11-14T16:08:13.528Z,9.10
2022-11-14T16:15:33.043Z,9.00
2022-11-14T16:22:53.521Z,9.00
2022-11-14T16:30:14.701Z,9.00
2022-11-14T16:37:33.772Z,9.10
2022-11-14T16:44:55.425Z,9.10
2022-11-14T16:52:17.004Z,9.10
2022-11-14T16:59:36.688Z,9.10
2022-11-14T17:06:55.995Z,9.10
2022-11-14T17:14:15.807Z,9.10
2022-11-14T17:21:35.177Z,9.10
2022-11-14T17:28:55.050Z,9.10
2022-11-14T17:36:14.774Z,9.10
2022-11-14T17:43:38.987Z,9.10
2022-11-14T17:51:09.433Z,9.10
2022-11-14T17:58:30.534Z,9.10
2022-11-14T18:05:50.562Z,9.00
2022-11-14T18:13:10.076Z,9.10
2022-11-14T18:20:29.690Z,9.00
2022-11-14T18:27:49.073Z,9.00
2022-11-14T18:35:09.885Z,9.00
2022-11-14T18:42:29.517Z,9.00
2022-11-14T18:49:48.737Z,8.90
2022-11-14T18:57:08.344Z,8.80
2022-11-14T19:04:27.791Z,8.70
2022-11-14T19:12:05.515Z,8.60
2022-11-14T19:19:25.601Z,8.40
2022-11-14T19:26:45.181Z,8.40
2022-11-14T19:34:05.411Z,8.30
2022-11-14T19:41:26.651Z,8.20
2022-11-14T19:48:46.075Z,8.20
2022-11-14T19:56:08.201Z,8.20
2022-11-14T20:03:28.059Z,8.10
2022-11-14T20:11:02.006Z,8.10
2022-11-14T20:18:21.210Z,8.10
2022-11-14T20:25:40.812Z,8.10
2022-11-14T20:33:00.121Z,8.10
2022-11-14T20:40:20.119Z,8.10
2022-11-14T20:47:39.035Z,8.20
2022-11-14T20:54:58.515Z,8.20
2022-11-14T21:02:18.109Z,8.20
2022-11-14T21:09:37.544Z,8.20
2022-11-14T21:16:56.747Z,8.30
2022-11-14T21:24:15.936Z,8.40
2022-11-14T21:31:40.181Z,8.50
2022-11-14T21:38:59.355Z,8.70
2022-11-14T21:46:18.406Z,8.80
2022-11-14T21:53:38.858Z,8.90
2022-11-14T22:01:06.809Z,8.90
2022-11-14T22:08:26.490Z,9.00
2022-11-14T22:15:45.761Z,9.10
2022-11-14T22:23:05.420Z,9.20
2022-11-14T22:30:26.518Z,9.30
2022-11-14T22:37:45.609Z,9.40
2022-11-14T22:45:05.431Z,9.50
2022-11-14T22:52:24.597Z,9.60
2022-11-14T22:59:44.104Z,9.70
2022-11-14T23:07:03.531Z,9.70
2022-11-14T23:14:22.795Z,9.80
2022-11-14T23:21:42.326Z,9.90
2022-11-14T23:29:01.773Z,10.00
2022-11-14T23:36:21.237Z,10.00
2022-11-14T23:43:40.562Z,10.10
2022-11-14T23:51:00.065Z,10.20
2022-11-14T23:58:19.999Z,10.30
